sensor_id;sensor_type;location;lat;lon;timestamp;pressure;altitude;pressure_sealevel;temperature;humidity
74594;BME280;63097;51.872;4.460;2023-07-31T00:00:05;101143.41;;;16.89;100.00
74594;BME280;63097;51.872;4.460;2023-07-31T00:02:31;101143.09;;;16.90;100.00
74594;BME280;63097;51.872;4.460;2023-07-31T00:04:56;101153.25;;;16.86;100.00
74594;BME280;63097;51.872;4.460;2023-07-31T00:07:22;101129.38;;;16.84;100.00
74594;BME280;63097;51.872;4.460;2023-07-31T00:09:47;101132.75;;;16.86;100.00
74594;BME280;63097;51.872;4.460;2023-07-31T00:12:12;101138.09;;;16.82;100.00
74594;BME280;63097;51.872;4.460;2023-07-31T00:14:37;101136.41;;;16.86;100.00
74594;BME280;63097;51.872;4.460;2023-07-31T00:17:03;101136.66;;;16.85;100.00
74594;BME280;63097;51.872;4.460;2023-07-31T00:19:28;101141.72;;;16.83;100.00
74594;BME280;63097;51.872;4.460;2023-07-31T00:21:54;101147.34;;;16.83;100.00
74594;BME280;63097;51.872;4.460;2023-07-31T00:24:19;101133.59;;;16.86;100.00
74594;BME280;63097;51.872;4.460;2023-07-31T00:26:44;101121.75;;;16.89;100.00
74594;BME280;63097;51.872;4.460;2023-07-31T00:29:09;101120.88;;;16.94;100.00
74594;BME280;63097;51.872;4.460;2023-07-31T00:31:35;101125.97;;;16.92;100.00
74594;BME280;63097;51.872;4.460;2023-07-31T00:34:00;101127.66;;;16.93;100.00
74594;BME280;63097;51.872;4.460;2023-07-31T00:36:25;101124.25;;;16.96;100.00
74594;BME280;63097;51.872;4.460;2023-07-31T00:38:50;101123.72;;;16.89;100.00
74594;BME280;63097;51.872;4.460;2023-07-31T00:41:16;101132.22;;;16.79;100.00
74594;BME280;63097;51.872;4.460;2023-07-31T00:43:41;101131.38;;;16.73;100.00
74594;BME280;63097;51.872;4.460;2023-07-31T00:46:06;101139.84;;;16.63;100.00
74594;BME280;63097;51.872;4.460;2023-07-31T00:48:32;101132.28;;;16.59;100.00
74594;BME280;63097;51.872;4.460;2023-07-31T00:50:58;101134.25;;;16.58;100.00
74594;BME280;63097;51.872;4.460;2023-07-31T00:53:24;101139.88;;;16.48;100.00
74594;BME280;63097;51.872;4.460;2023-07-31T00:55:49;101145.50;;;16.48;100.00
74594;BME280;63097;51.872;4.460;2023-07-31T00:58:14;101142.13;;;16.46;100.00
74594;BME280;63097;51.872;4.460;2023-07-31T01:00:40;101133.13;;;16.39;100.00
74594;BME280;63097;51.872;4.460;2023-07-31T01:03:05;101127.84;;;16.28;100.00
74594;BME280;63097;51.872;4.460;2023-07-31T01:05:44;101125.88;;;16.33;100.00
74594;BME280;63097;51.872;4.460;2023-07-31T01:08:40;101114.03;;;16.41;100.00
74594;BME280;63097;51.872;4.460;2023-07-31T01:11:28;101123.88;;;16.49;100.00
74594;BME280;63097;51.872;4.460;2023-07-31T01:13:54;101119.94;;;16.55;100.00
74594;BME280;63097;51.872;4.460;2023-07-31T01:16:20;101127.75;;;16.63;100.00
74594;BME280;63097;51.872;4.460;2023-07-31T01:18:45;101121.59;;;16.61;100.00
74594;BME280;63097;51.872;4.460;2023-07-31T01:27:06;101117.91;;;16.70;100.00
74594;BME280;63097;51.872;4.460;2023-07-31T01:29:55;101106.91;;;16.74;100.00
74594;BME280;63097;51.872;4.460;2023-07-31T01:32:22;101106.41;;;16.67;100.00
74594;BME280;63097;51.872;4.460;2023-07-31T01:34:48;101105.84;;;16.70;100.00
74594;BME280;63097;51.872;4.460;2023-07-31T01:37:13;101104.69;;;16.71;100.00
74594;BME280;63097;51.872;4.460;2023-07-31T01:39:39;101106.06;;;16.78;100.00
74594;BME280;63097;51.872;4.460;2023-07-31T01:42:04;101110.59;;;16.69;100.00
74594;BME280;63097;51.872;4.460;2023-07-31T01:44:30;101107.81;;;16.69;100.00
74594;BME280;63097;51.872;4.460;2023-07-31T01:46:55;101103.59;;;16.72;100.00
74594;BME280;63097;51.872;4.460;2023-07-31T01:49:20;101093.78;;;16.64;100.00
74594;BME280;63097;51.872;4.460;2023-07-31T01:51:45;101100.50;;;16.63;100.00
74594;BME280;63097;51.872;4.460;2023-07-31T01:54:11;101080.00;;;16.63;100.00
74594;BME280;63097;51.872;4.460;2023-07-31T01:56:36;101083.63;;;16.68;100.00
74594;BME280;63097;51.872;4.460;2023-07-31T01:59:01;101087.56;;;16.72;100.00
74594;BME280;63097;51.872;4.460;2023-07-31T02:01:27;101072.94;;;16.75;100.00
74594;BME280;63097;51.872;4.460;2023-07-31T02:03:52;101076.31;;;16.77;100.00
74594;BME280;63097;51.872;4.460;2023-07-31T02:06:17;101076.03;;;16.74;100.00
74594;BME280;63097;51.872;4.460;2023-07-31T02:08:42;101067.59;;;16.74;100.00
74594;BME280;63097;51.872;4.460;2023-07-31T02:11:08;101070.97;;;16.76;100.00
74594;BME280;63097;51.872;4.460;2023-07-31T02:13:33;101053.84;;;16.72;100.00
74594;BME280;63097;51.872;4.460;2023-07-31T02:15:58;101060.59;;;16.71;100.00
74594;BME280;63097;51.872;4.460;2023-07-31T02:18:24;101051.88;;;16.73;100.00
74594;BME280;63097;51.872;4.460;2023-07-31T02:20:50;101049.34;;;16.76;100.00
74594;BME280;63097;51.872;4.460;2023-07-31T02:23:16;101048.22;;;16.72;100.00
74594;BME280;63097;51.872;4.460;2023-07-31T02:25:41;101049.91;;;16.73;100.00
74594;BME280;63097;51.872;4.460;2023-07-31T02:28:06;101052.72;;;16.68;100.00
74594;BME280;63097;51.872;4.460;2023-07-31T02:30:32;101052.22;;;16.66;100.00
74594;BME280;63097;51.872;4.460;2023-07-31T02:32:57;101042.38;;;16.64;100.00
74594;BME280;63097;51.872;4.460;2023-07-31T02:35:22;101043.22;;;16.64;100.00
74594;BME280;63097;51.872;4.460;2023-07-31T02:37:47;101051.91;;;16.68;100.00
74594;BME280;63097;51.872;4.460;2023-07-31T02:40:13;101048.28;;;16.62;100.00
74594;BME280;63097;51.872;4.460;2023-07-31T02:42:38;101044.03;;;16.65;100.00
74594;BME280;63097;51.872;4.460;2023-07-31T02:45:04;101038.41;;;16.65;100.00
74594;BME280;63097;51.872;4.460;2023-07-31T02:47:29;101052.13;;;16.76;100.00
74594;BME280;63097;51.872;4.460;2023-07-31T02:49:54;101046.00;;;16.69;100.00
74594;BME280;63097;51.872;4.460;2023-07-31T02:52:20;101042.09;;;16.65;100.00
74594;BME280;63097;51.872;4.460;2023-07-31T02:54:45;101023.31;;;16.56;100.00
74594;BME280;63097;51.872;4.460;2023-07-31T02:57:10;101042.06;;;16.70;100.00
74594;BME280;63097;51.872;4.460;2023-07-31T02:59:36;101030.56;;;16.72;100.00
74594;BME280;63097;51.872;4.460;2023-07-31T03:02:01;101014.81;;;16.71;100.00
74594;BME280;63097;51.872;4.460;2023-07-31T03:04:26;101020.97;;;16.73;100.00
74594;BME280;63097;51.872;4.460;2023-07-31T03:06:51;101004.38;;;16.76;100.00
74594;BME280;63097;51.872;4.460;2023-07-31T03:09:17;101014.50;;;16.77;100.00
74594;BME280;63097;51.872;4.460;2023-07-31T03:11:42;101015.91;;;16.75;100.00
74594;BME280;63097;51.872;4.460;2023-07-31T03:14:07;101019.31;;;16.72;100.00
74594;BME280;63097;51.872;4.460;2023-07-31T03:16:32;101011.69;;;16.72;100.00
74594;BME280;63097;51.872;4.460;2023-07-31T03:18:58;101027.75;;;16.72;100.00
74594;BME280;63097;51.872;4.460;2023-07-31T03:21:23;101004.75;;;16.60;100.00
74594;BME280;63097;51.872;4.460;2023-07-31T03:23:48;101012.66;;;16.53;100.00
74594;BME280;63097;51.872;4.460;2023-07-31T03:26:14;101012.38;;;16.39;100.00
74594;BME280;63097;51.872;4.460;2023-07-31T03:28:39;101011.56;;;16.34;100.00
74594;BME280;63097;51.872;4.460;2023-07-31T03:31:04;101002.63;;;16.27;100.00
74594;BME280;63097;51.872;4.460;2023-07-31T03:33:30;101011.09;;;16.11;100.00
74594;BME280;63097;51.872;4.460;2023-07-31T03:35:55;101008.03;;;16.03;100.00
74594;BME280;63097;51.872;4.460;2023-07-31T03:38:20;100999.34;;;15.99;100.00
74594;BME280;63097;51.872;4.460;2023-07-31T03:40:46;100995.44;;;15.95;100.00
74594;BME280;63097;51.872;4.460;2023-07-31T03:43:11;100986.75;;;15.92;100.00
74594;BME280;63097;51.872;4.460;2023-07-31T03:45:36;100982.81;;;15.93;100.00
74594;BME280;63097;51.872;4.460;2023-07-31T03:48:03;100975.53;;;15.92;100.00
74594;BME280;63097;51.872;4.460;2023-07-31T03:50:28;100967.09;;;15.92;100.00
74594;BME280;63097;51.872;4.460;2023-07-31T03:52:54;100969.09;;;15.86;100.00
74594;BME280;63097;51.872;4.460;2023-07-31T03:55:19;100977.22;;;15.88;100.00
74594;BME280;63097;51.872;4.460;2023-07-31T03:57:44;100970.78;;;15.87;100.00
74594;BME280;63097;51.872;4.460;2023-07-31T04:00:10;100968.78;;;15.88;100.00
74594;BME280;63097;51.872;4.460;2023-07-31T04:02:35;100962.34;;;15.82;100.00
74594;BME280;63097;51.872;4.460;2023-07-31T04:05:01;100956.47;;;15.84;100.00
74594;BME280;63097;51.872;4.460;2023-07-31T04:07:26;100954.53;;;15.79;100.00
74594;BME280;63097;51.872;4.460;2023-07-31T04:09:51;100953.38;;;15.80;100.00
74594;BME280;63097;51.872;4.460;2023-07-31T04:12:16;100957.06;;;15.76;100.00
74594;BME280;63097;51.872;4.460;2023-07-31T04:14:42;100939.94;;;15.77;100.00
74594;BME280;63097;51.872;4.460;2023-07-31T04:17:07;100942.75;;;15.77;100.00
74594;BME280;63097;51.872;4.460;2023-07-31T04:19:32;100946.69;;;15.76;100.00
74594;BME280;63097;51.872;4.460;2023-07-31T04:21:57;100937.13;;;15.77;100.00
74594;BME280;63097;51.872;4.460;2023-07-31T04:24:23;100944.44;;;15.78;100.00
74594;BME280;63097;51.872;4.460;2023-07-31T04:26:48;100936.56;;;15.80;100.00
74594;BME280;63097;51.872;4.460;2023-07-31T04:29:13;100937.66;;;15.84;100.00
74594;BME280;63097;51.872;4.460;2023-07-31T04:31:39;100935.13;;;15.88;100.00
74594;BME280;63097;51.872;4.460;2023-07-31T04:34:04;100939.09;;;15.82;100.00
74594;BME280;63097;51.872;4.460;2023-07-31T04:36:29;100927.31;;;15.75;100.00
74594;BME280;63097;51.872;4.460;2023-07-31T04:38:54;100909.94;;;15.73;100.00
74594;BME280;63097;51.872;4.460;2023-07-31T04:41:20;100920.84;;;15.84;100.00
74594;BME280;63097;51.872;4.460;2023-07-31T04:43:45;100920.59;;;15.76;100.00
74594;BME280;63097;51.872;4.460;2023-07-31T04:46:10;100926.78;;;15.73;100.00
74594;BME280;63097;51.872;4.460;2023-07-31T04:48:36;100926.50;;;15.74;100.00
74594;BME280;63097;51.872;4.460;2023-07-31T04:51:01;100919.47;;;15.72;100.00
74594;BME280;63097;51.872;4.460;2023-07-31T04:53:26;100907.16;;;15.73;100.00
74594;BME280;63097;51.872;4.460;2023-07-31T04:55:51;100907.13;;;15.68;100.00
74594;BME280;63097;51.872;4.460;2023-07-31T04:58:17;100903.50;;;15.72;100.00
74594;BME280;63097;51.872;4.460;2023-07-31T05:00:42;100906.31;;;15.72;100.00
74594;BME280;63097;51.872;4.460;2023-07-31T05:03:07;100916.09;;;15.80;100.00
74594;BME280;63097;51.872;4.460;2023-07-31T05:05:33;100892.56;;;15.71;100.00
74594;BME280;63097;51.872;4.460;2023-07-31T05:07:58;100898.16;;;15.76;100.00
74594;BME280;63097;51.872;4.460;2023-07-31T05:10:23;100898.44;;;15.74;100.00
74594;BME280;63097;51.872;4.460;2023-07-31T05:12:48;100897.00;;;15.77;100.00
74594;BME280;63097;51.872;4.460;2023-07-31T05:15:14;100903.19;;;15.84;100.00
74594;BME280;63097;51.872;4.460;2023-07-31T05:17:39;100901.50;;;15.83;100.00
74594;BME280;63097;51.872;4.460;2023-07-31T05:20:05;100898.38;;;15.84;100.00
74594;BME280;63097;51.872;4.460;2023-07-31T05:22:30;100892.78;;;15.89;100.00
74594;BME280;63097;51.872;4.460;2023-07-31T05:24:56;100896.41;;;15.90;100.00
74594;BME280;63097;51.872;4.460;2023-07-31T05:27:21;100891.34;;;15.92;100.00
74594;BME280;63097;51.872;4.460;2023-07-31T05:29:46;100875.38;;;15.92;100.00
74594;BME280;63097;51.872;4.460;2023-07-31T05:32:11;100876.47;;;15.91;100.00
74594;BME280;63097;51.872;4.460;2023-07-31T05:34:37;100880.41;;;15.95;100.00
74594;BME280;63097;51.872;4.460;2023-07-31T05:37:02;100883.16;;;16.00;100.00
74594;BME280;63097;51.872;4.460;2023-07-31T05:39:27;100878.09;;;16.02;100.00
74594;BME280;63097;51.872;4.460;2023-07-31T05:41:53;100882.66;;;15.98;100.00
74594;BME280;63097;51.872;4.460;2023-07-31T05:44:18;100877.03;;;15.98;100.00
74594;BME280;63097;51.872;4.460;2023-07-31T05:46:43;100871.94;;;16.05;100.00
74594;BME280;63097;51.872;4.460;2023-07-31T05:49:09;100865.16;;;16.11;100.00
74594;BME280;63097;51.872;4.460;2023-07-31T05:51:34;100856.72;;;16.11;100.00
74594;BME280;63097;51.872;4.460;2023-07-31T05:53:59;100865.72;;;16.13;100.00
74594;BME280;63097;51.872;4.460;2023-07-31T05:56:24;100866.25;;;16.21;100.00
74594;BME280;63097;51.872;4.460;2023-07-31T05:58:50;100868.19;;;16.25;100.00
74594;BME280;63097;51.872;4.460;2023-07-31T06:01:16;100872.66;;;16.26;100.00
74594;BME280;63097;51.872;4.460;2023-07-31T06:03:41;100881.06;;;16.26;100.00
74594;BME280;63097;51.872;4.460;2023-07-31T06:06:07;100859.19;;;16.23;100.00
74594;BME280;63097;51.872;4.460;2023-07-31T06:08:32;100862.22;;;16.32;100.00
74594;BME280;63097;51.872;4.460;2023-07-31T06:10:57;100856.34;;;16.33;100.00
74594;BME280;63097;51.872;4.460;2023-07-31T06:13:22;100855.25;;;16.29;100.00
74594;BME280;63097;51.872;4.460;2023-07-31T06:15:48;100854.91;;;16.36;100.00
74594;BME280;63097;51.872;4.460;2023-07-31T06:18:13;100849.34;;;16.31;100.00
74594;BME280;63097;51.872;4.460;2023-07-31T06:20:38;100853.25;;;16.35;100.00
74594;BME280;63097;51.872;4.460;2023-07-31T06:23:04;100849.84;;;16.38;100.00
74594;BME280;63097;51.872;4.460;2023-07-31T06:25:29;100847.88;;;16.38;100.00
74594;BME280;63097;51.872;4.460;2023-07-31T06:27:54;100855.16;;;16.39;100.00
74594;BME280;63097;51.872;4.460;2023-07-31T06:30:19;100824.66;;;16.28;100.00
74594;BME280;63097;51.872;4.460;2023-07-31T06:32:45;100841.72;;;16.36;100.00
74594;BME280;63097;51.872;4.460;2023-07-31T06:35:10;100835.00;;;16.32;100.00
74594;BME280;63097;51.872;4.460;2023-07-31T06:37:35;100841.16;;;16.34;100.00
74594;BME280;63097;51.872;4.460;2023-07-31T06:40:00;100842.88;;;16.35;100.00
74594;BME280;63097;51.872;4.460;2023-07-31T06:42:26;100842.88;;;16.35;100.00
74594;BME280;63097;51.872;4.460;2023-07-31T06:44:51;100829.63;;;16.36;100.00
74594;BME280;63097;51.872;4.460;2023-07-31T06:47:16;100829.34;;;16.37;100.00
74594;BME280;63097;51.872;4.460;2023-07-31T06:49:42;100835.81;;;16.38;100.00
74594;BME280;63097;51.872;4.460;2023-07-31T06:52:07;100828.78;;;16.40;100.00
74594;BME280;63097;51.872;4.460;2023-07-31T06:54:32;100832.97;;;16.43;100.00
74594;BME280;63097;51.872;4.460;2023-07-31T06:56:58;100831.53;;;16.45;100.00
74594;BME280;63097;51.872;4.460;2023-07-31T06:59:23;100821.72;;;16.43;100.00
74594;BME280;63097;51.872;4.460;2023-07-31T07:01:48;100834.66;;;16.44;100.00
74594;BME280;63097;51.872;4.460;2023-07-31T07:04:14;100815.53;;;16.46;100.00
74594;BME280;63097;51.872;4.460;2023-07-31T07:06:39;100815.28;;;16.47;100.00
74594;BME280;63097;51.872;4.460;2023-07-31T07:09:04;100842.19;;;16.53;100.00
74594;BME280;63097;51.872;4.460;2023-07-31T07:11:30;100826.16;;;16.59;100.00
74594;BME280;63097;51.872;4.460;2023-07-31T07:13:56;100823.59;;;16.62;100.00
74594;BME280;63097;51.872;4.460;2023-07-31T07:16:21;100830.81;;;16.68;100.00
74594;BME280;63097;51.872;4.460;2023-07-31T07:18:46;100824.09;;;16.69;100.00
74594;BME280;63097;51.872;4.460;2023-07-31T07:21:11;100822.69;;;16.72;100.00
74594;BME280;63097;51.872;4.460;2023-07-31T07:23:37;100829.09;;;16.72;100.00
74594;BME280;63097;51.872;4.460;2023-07-31T07:26:02;100829.47;;;16.66;100.00
74594;BME280;63097;51.872;4.460;2023-07-31T07:28:27;100826.84;;;16.74;100.00
74594;BME280;63097;51.872;4.460;2023-07-31T07:30:53;100831.91;;;16.77;100.00
74594;BME280;63097;51.872;4.460;2023-07-31T07:33:18;100823.47;;;16.77;100.00
74594;BME280;63097;51.872;4.460;2023-07-31T07:35:43;100825.97;;;16.79;100.00
74594;BME280;63097;51.872;4.460;2023-07-31T07:38:08;100815.53;;;16.84;100.00
74594;BME280;63097;51.872;4.460;2023-07-31T07:40:38;100842.00;;;16.78;100.00
74594;BME280;63097;51.872;4.460;2023-07-31T07:43:04;100829.97;;;16.73;100.00
74594;BME280;63097;51.872;4.460;2023-07-31T07:45:29;100824.53;;;16.81;100.00
74594;BME280;63097;51.872;4.460;2023-07-31T07:47:54;100829.59;;;16.84;100.00
74594;BME280;63097;51.872;4.460;2023-07-31T07:50:19;100823.28;;;16.97;100.00
74594;BME280;63097;51.872;4.460;2023-07-31T07:52:45;100822.97;;;16.99;100.00
74594;BME280;63097;51.872;4.460;2023-07-31T07:55:10;100828.25;;;17.05;100.00
74594;BME280;63097;51.872;4.460;2023-07-31T07:57:35;100824.06;;;17.03;100.00
74594;BME280;63097;51.872;4.460;2023-07-31T08:00:00;100810.25;;;17.06;100.00
74594;BME280;63097;51.872;4.460;2023-07-31T08:02:26;100811.56;;;17.14;100.00
74594;BME280;63097;51.872;4.460;2023-07-31T08:04:51;100812.53;;;17.04;100.00
74594;BME280;63097;51.872;4.460;2023-07-31T08:07:16;100818.41;;;17.08;100.00
74594;BME280;63097;51.872;4.460;2023-07-31T08:09:42;100814.56;;;16.99;100.00
74594;BME280;63097;51.872;4.460;2023-07-31T08:12:07;100819.03;;;17.00;100.00
74594;BME280;63097;51.872;4.460;2023-07-31T08:14:32;100810.28;;;17.01;100.00
74594;BME280;63097;51.872;4.460;2023-07-31T08:16:58;100797.56;;;17.09;100.00
74594;BME280;63097;51.872;4.460;2023-07-31T08:19:23;100802.19;;;17.24;100.00
74594;BME280;63097;51.872;4.460;2023-07-31T08:21:48;100803.97;;;17.43;100.00
74594;BME280;63097;51.872;4.460;2023-07-31T08:24:13;100812.19;;;17.63;100.00
74594;BME280;63097;51.872;4.460;2023-07-31T08:26:39;100805.41;;;17.64;100.00
74594;BME280;63097;51.872;4.460;2023-07-31T08:29:04;100799.84;;;17.59;100.00
74594;BME280;63097;51.872;4.460;2023-07-31T08:31:30;100802.81;;;17.68;100.00
74594;BME280;63097;51.872;4.460;2023-07-31T08:33:56;100809.47;;;17.53;100.00
74594;BME280;63097;51.872;4.460;2023-07-31T08:36:21;100799.69;;;17.46;100.00
74594;BME280;63097;51.872;4.460;2023-07-31T08:38:46;100802.81;;;17.44;100.00
74594;BME280;63097;51.872;4.460;2023-07-31T08:41:12;100809.31;;;17.40;100.00
74594;BME280;63097;51.872;4.460;2023-07-31T08:43:38;100788.28;;;17.37;100.00
74594;BME280;63097;51.872;4.460;2023-07-31T08:46:03;100805.03;;;17.47;100.00
74594;BME280;63097;51.872;4.460;2023-07-31T08:48:31;100803.69;;;17.40;100.00
74594;BME280;63097;51.872;4.460;2023-07-31T08:50:56;100807.88;;;17.42;100.00
74594;BME280;63097;51.872;4.460;2023-07-31T08:53:22;100802.41;;;17.32;100.00
74594;BME280;63097;51.872;4.460;2023-07-31T08:55:48;100800.94;;;17.35;100.00
74594;BME280;63097;51.872;4.460;2023-07-31T08:58:14;100803.09;;;17.43;100.00
74594;BME280;63097;51.872;4.460;2023-07-31T09:00:40;100807.03;;;17.42;100.00
74594;BME280;63097;51.872;4.460;2023-07-31T09:03:13;100803.31;;;17.51;100.00
74594;BME280;63097;51.872;4.460;2023-07-31T09:05:42;100799.91;;;17.78;100.00
74594;BME280;63097;51.872;4.460;2023-07-31T09:08:09;100793.13;;;17.79;100.00
74594;BME280;63097;51.872;4.460;2023-07-31T09:10:34;100794.53;;;18.00;100.00
74594;BME280;63097;51.872;4.460;2023-07-31T09:13:00;100792.00;;;17.98;100.00
74594;BME280;63097;51.872;4.460;2023-07-31T09:15:27;100794.66;;;18.08;100.00
74594;BME280;63097;51.872;4.460;2023-07-31T09:18:00;100795.53;;;18.09;100.00
74594;BME280;63097;51.872;4.460;2023-07-31T09:20:25;100792.22;;;18.02;100.00
74594;BME280;63097;51.872;4.460;2023-07-31T09:22:51;100791.41;;;18.01;100.00
74594;BME280;63097;51.872;4.460;2023-07-31T09:25:24;100796.50;;;17.99;100.00
74594;BME280;63097;51.872;4.460;2023-07-31T09:27:51;100795.88;;;18.02;100.00
74594;BME280;63097;51.872;4.460;2023-07-31T09:30:18;100795.13;;;17.97;100.00
74594;BME280;63097;51.872;4.460;2023-07-31T09:32:44;100796.72;;;18.03;100.00
74594;BME280;63097;51.872;4.460;2023-07-31T09:35:29;100791.41;;;18.01;100.00
74594;BME280;63097;51.872;4.460;2023-07-31T09:38:00;100800.59;;;18.07;100.00
74594;BME280;63097;51.872;4.460;2023-07-31T09:40:33;100793.22;;;17.92;100.00
74594;BME280;63097;51.872;4.460;2023-07-31T09:43:06;100785.91;;;17.91;100.00
74594;BME280;63097;51.872;4.460;2023-07-31T09:45:34;100786.53;;;18.07;100.00
74594;BME280;63097;51.872;4.460;2023-07-31T09:48:00;100771.16;;;17.99;100.00
74594;BME280;63097;51.872;4.460;2023-07-31T09:50:25;100782.97;;;18.01;100.00
74594;BME280;63097;51.872;4.460;2023-07-31T09:52:51;100774.03;;;18.13;100.00
74594;BME280;63097;51.872;4.460;2023-07-31T09:55:17;100782.66;;;18.03;100.00
74594;BME280;63097;51.872;4.460;2023-07-31T09:57:48;100789.78;;;17.95;100.00
74594;BME280;63097;51.872;4.460;2023-07-31T10:00:16;100789.47;;;17.97;100.00
74594;BME280;63097;51.872;4.460;2023-07-31T10:02:45;100781.13;;;17.92;100.00
74594;BME280;63097;51.872;4.460;2023-07-31T10:05:12;100793.34;;;17.82;100.00
74594;BME280;63097;51.872;4.460;2023-07-31T10:07:38;100784.75;;;17.74;100.00
74594;BME280;63097;51.872;4.460;2023-07-31T10:10:04;100783.13;;;17.68;100.00
74594;BME280;63097;51.872;4.460;2023-07-31T10:12:33;100792.13;;;17.70;100.00
74594;BME280;63097;51.872;4.460;2023-07-31T10:14:59;100793.63;;;17.62;100.00
74594;BME280;63097;51.872;4.460;2023-07-31T10:17:25;100789.13;;;17.61;100.00
74594;BME280;63097;51.872;4.460;2023-07-31T10:19:51;100790.88;;;17.57;100.00
74594;BME280;63097;51.872;4.460;2023-07-31T10:22:21;100784.31;;;17.62;100.00
74594;BME280;63097;51.872;4.460;2023-07-31T10:24:46;100786.19;;;17.71;100.00
74594;BME280;63097;51.872;4.460;2023-07-31T10:27:12;100791.50;;;17.73;100.00
74594;BME280;63097;51.872;4.460;2023-07-31T10:29:43;100791.50;;;17.73;100.00
74594;BME280;63097;51.872;4.460;2023-07-31T10:32:09;100793.72;;;17.76;100.00
74594;BME280;63097;51.872;4.460;2023-07-31T10:34:37;100794.50;;;17.81;100.00
74594;BME280;63097;51.872;4.460;2023-07-31T10:37:26;100784.59;;;17.84;100.00
74594;BME280;63097;51.872;4.460;2023-07-31T10:40:05;100780.03;;;17.88;100.00
74594;BME280;63097;51.872;4.460;2023-07-31T10:42:36;100784.06;;;17.82;100.00
74594;BME280;63097;51.872;4.460;2023-07-31T10:45:07;100778.72;;;17.80;100.00
74594;BME280;63097;51.872;4.460;2023-07-31T10:47:45;100780.34;;;17.86;100.00
74594;BME280;63097;51.872;4.460;2023-07-31T10:50:19;100776.91;;;17.89;100.00
74594;BME280;63097;51.872;4.460;2023-07-31T10:52:52;100788.59;;;18.01;100.00
74594;BME280;63097;51.872;4.460;2023-07-31T10:57:49;100775.88;;;18.23;100.00
74594;BME280;63097;51.872;4.460;2023-07-31T11:00:25;100764.47;;;18.33;100.00
74594;BME280;63097;51.872;4.460;2023-07-31T11:03:06;100767.28;;;18.51;100.00
74594;BME280;63097;51.872;4.460;2023-07-31T11:06:03;100767.03;;;18.48;100.00
74594;BME280;63097;51.872;4.460;2023-07-31T11:08:30;100757.56;;;18.44;100.00
74594;BME280;63097;51.872;4.460;2023-07-31T11:13:32;100763.75;;;18.59;100.00
74594;BME280;63097;51.872;4.460;2023-07-31T11:15:58;100742.38;;;18.58;100.00
74594;BME280;63097;51.872;4.460;2023-07-31T11:18:23;100746.28;;;18.76;100.00
74594;BME280;63097;51.872;4.460;2023-07-31T11:20:49;100750.09;;;18.66;100.00
74594;BME280;63097;51.872;4.460;2023-07-31T11:23:16;100750.72;;;18.63;100.00
74594;BME280;63097;51.872;4.460;2023-07-31T11:25:41;100750.50;;;18.60;100.00
74594;BME280;63097;51.872;4.460;2023-07-31T11:28:09;100753.31;;;18.60;100.00
74594;BME280;63097;51.872;4.460;2023-07-31T11:30:35;100747.91;;;18.63;100.00
74594;BME280;63097;51.872;4.460;2023-07-31T11:33:05;100750.25;;;18.75;100.00
74594;BME280;63097;51.872;4.460;2023-07-31T11:35:35;100744.19;;;18.68;100.00
74594;BME280;63097;51.872;4.460;2023-07-31T11:38:02;100753.63;;;18.58;100.00
74594;BME280;63097;51.872;4.460;2023-07-31T11:40:28;100749.91;;;18.44;100.00
74594;BME280;63097;51.872;4.460;2023-07-31T11:42:54;100747.09;;;18.44;100.00
74594;BME280;63097;51.872;4.460;2023-07-31T11:45:19;100753.41;;;18.55;100.00
74594;BME280;63097;51.872;4.460;2023-07-31T11:47:45;100757.41;;;18.67;100.00
74594;BME280;63097;51.872;4.460;2023-07-31T11:50:11;100763.81;;;18.73;100.00
74594;BME280;63097;51.872;4.460;2023-07-31T11:52:44;100760.47;;;18.84;100.00
74594;BME280;63097;51.872;4.460;2023-07-31T11:55:10;100764.78;;;18.95;100.00
74594;BME280;63097;51.872;4.460;2023-07-31T11:57:38;100755.81;;;18.93;100.00
74594;BME280;63097;51.872;4.460;2023-07-31T12:00:06;100752.53;;;18.86;100.00
74594;BME280;63097;51.872;4.460;2023-07-31T12:02:32;100747.00;;;18.68;100.00
74594;BME280;63097;51.872;4.460;2023-07-31T12:04:57;100750.72;;;18.63;100.00
74594;BME280;63097;51.872;4.460;2023-07-31T12:07:24;100741.31;;;18.54;100.00
74594;BME280;63097;51.872;4.460;2023-07-31T12:12:22;100737.16;;;18.65;100.00
74594;BME280;63097;51.872;4.460;2023-07-31T12:14:48;100732.22;;;18.57;100.00
74594;BME280;63097;51.872;4.460;2023-07-31T12:17:14;100730.72;;;18.46;100.00
74594;BME280;63097;51.872;4.460;2023-07-31T12:19:39;100727.84;;;18.51;100.00
74594;BME280;63097;51.872;4.460;2023-07-31T12:22:14;100719.09;;;18.53;100.00
74594;BME280;63097;51.872;4.460;2023-07-31T12:24:42;100722.34;;;18.60;100.00
74594;BME280;63097;51.872;4.460;2023-07-31T12:27:12;100711.97;;;18.55;100.00
74594;BME280;63097;51.872;4.460;2023-07-31T12:29:38;100714.56;;;18.52;100.00
74594;BME280;63097;51.872;4.460;2023-07-31T12:32:04;100721.22;;;18.42;100.00
74594;BME280;63097;51.872;4.460;2023-07-31T12:34:29;100727.31;;;18.31;100.00
74594;BME280;63097;51.872;4.460;2023-07-31T12:36:54;100716.66;;;18.28;100.00
74594;BME280;63097;51.872;4.460;2023-07-31T12:39:20;100712.69;;;18.29;100.00
74594;BME280;63097;51.872;4.460;2023-07-31T12:41:45;100702.88;;;18.26;100.00
74594;BME280;63097;51.872;4.460;2023-07-31T12:44:10;100711.94;;;18.23;100.00
74594;BME280;63097;51.872;4.460;2023-07-31T12:46:35;100699.25;;;18.26;100.00
74594;BME280;63097;51.872;4.460;2023-07-31T12:49:01;100705.63;;;18.31;100.00